createdAt,value
2018-05-27T00:01:26.907Z,102101.28
2018-05-27T00:03:55.382Z,102095.78
2018-05-27T00:06:24.481Z,102100.19
2018-05-27T00:08:52.807Z,102094.45
2018-05-27T00:11:21.514Z,102093.12
2018-05-27T00:13:49.885Z,102089.43
2018-05-27T00:16:18.229Z,102091.66
2018-05-27T00:18:46.574Z,102098.67
2018-05-27T00:21:14.925Z,102092.09
2018-05-27T00:23:43.262Z,102098.20
2018-05-27T00:26:11.633Z,102102.05
2018-05-27T00:28:39.970Z,102097.16
2018-05-27T00:31:08.346Z,102104.41
2018-05-27T00:33:37.152Z,102103.89
2018-05-27T00:36:05.544Z,102102.46
2018-05-27T00:38:33.886Z,102101.19
2018-05-27T00:41:02.299Z,102106.45
2018-05-27T00:43:31.389Z,102099.62
2018-05-27T00:46:00.488Z,102097.54
2018-05-27T00:48:28.849Z,102097.92
2018-05-27T00:50:57.236Z,102098.91
2018-05-27T00:53:43.689Z,102106.57
2018-05-27T00:56:12.043Z,102102.34
2018-05-27T00:58:40.390Z,102105.98
2018-05-27T01:01:09.517Z,102098.16
2018-05-27T01:03:37.885Z,102088.70
2018-05-27T01:06:06.272Z,102083.12
2018-05-27T01:08:34.613Z,102086.72
2018-05-27T01:11:02.916Z,102088.28
2018-05-27T01:13:31.264Z,102089.32
2018-05-27T01:16:00.629Z,102093.37
2018-05-27T01:18:28.985Z,102089.59
2018-05-27T01:20:58.142Z,102089.73
2018-05-27T01:23:27.333Z,102084.13
2018-05-27T01:25:55.715Z,102088.70
2018-05-27T01:28:24.071Z,102076.00
2018-05-27T01:30:52.450Z,102070.72
2018-05-27T01:33:20.785Z,102072.02
2018-05-27T01:35:49.887Z,102071.48
2018-05-27T01:38:19.221Z,102064.42
2018-05-27T01:40:47.588Z,102069.17
2018-05-27T01:43:15.946Z,102069.10
2018-05-27T01:45:45.108Z,102067.95
2018-05-27T01:48:13.483Z,102069.53
2018-05-27T01:50:41.832Z,102068.65
2018-05-27T01:53:10.199Z,102072.97
2018-05-27T01:55:38.526Z,102075.56
2018-05-27T01:58:06.899Z,102074.25
2018-05-27T02:00:35.849Z,102075.39
2018-05-27T02:03:04.172Z,102072.95
2018-05-27T02:05:32.482Z,102071.66
2018-05-27T02:08:01.612Z,102071.05
2018-05-27T02:10:29.995Z,102070.29
2018-05-27T02:12:58.357Z,102058.05
2018-05-27T02:15:26.759Z,102059.77
2018-05-27T02:17:55.117Z,102056.16
2018-05-27T02:20:23.485Z,102052.61
2018-05-27T02:22:52.137Z,102048.00
2018-05-27T02:25:20.504Z,102046.54
2018-05-27T02:27:48.857Z,102043.59
2018-05-27T02:30:17.213Z,102040.47
2018-05-27T02:32:45.687Z,102042.03
2018-05-27T02:35:14.028Z,102037.27
2018-05-27T02:37:42.410Z,102039.29
2018-05-27T02:40:10.782Z,102039.75
2018-05-27T02:42:39.108Z,102037.80
2018-05-27T02:45:07.810Z,102038.80
2018-05-27T02:47:36.160Z,102035.86
2018-05-27T02:50:04.502Z,102036.73
2018-05-27T02:52:33.680Z,102034.48
2018-05-27T02:55:02.019Z,102036.13
2018-05-27T02:57:30.375Z,102027.38
2018-05-27T02:59:58.745Z,102032.09
2018-05-27T03:02:27.878Z,102032.11
2018-05-27T03:04:56.209Z,102030.58
2018-05-27T03:07:24.968Z,102031.44
2018-05-27T03:09:53.312Z,102034.72
2018-05-27T03:12:21.667Z,102033.17
2018-05-27T03:14:50.004Z,102036.00
2018-05-27T03:17:18.406Z,102036.56
2018-05-27T03:19:46.722Z,102041.09
2018-05-27T03:22:15.823Z,102045.64
2018-05-27T03:24:44.941Z,102046.32
2018-05-27T03:27:13.292Z,102044.17
2018-05-27T03:29:41.939Z,102045.34
2018-05-27T03:32:10.256Z,102039.95
2018-05-27T03:34:38.626Z,102036.78
2018-05-27T03:37:07.012Z,102029.16
2018-05-27T03:39:35.486Z,102032.25
2018-05-27T03:42:03.863Z,102039.39
2018-05-27T03:44:32.264Z,102045.92
2018-05-27T03:47:01.446Z,102046.73
2018-05-27T03:49:29.881Z,102053.27
2018-05-27T03:51:58.505Z,102054.16
2018-05-27T03:54:26.862Z,102047.94
2018-05-27T03:56:55.220Z,102047.77
2018-05-27T03:59:23.668Z,102049.68
2018-05-27T04:01:52.843Z,102051.55
2018-05-27T04:04:53.784Z,102054.00
2018-05-27T04:07:39.839Z,102053.23
2018-05-27T04:10:08.534Z,102058.80
2018-05-27T04:12:36.946Z,102053.64
2018-05-27T04:15:05.364Z,102047.44
2018-05-27T04:17:33.801Z,102046.55
2018-05-27T04:20:02.199Z,102052.31
2018-05-27T04:22:31.376Z,102051.27
2018-05-27T04:24:59.864Z,102055.61
2018-05-27T04:27:28.260Z,102043.99
2018-05-27T04:29:56.667Z,102053.39
2018-05-27T04:32:36.164Z,102049.70
2018-05-27T04:35:04.634Z,102043.97
2018-05-27T04:37:32.979Z,102044.02
2018-05-27T04:40:01.405Z,102039.08
2018-05-27T04:42:29.802Z,102039.45
2018-05-27T04:44:58.243Z,102041.19
2018-05-27T04:47:26.653Z,102039.66
2018-05-27T04:49:55.043Z,102040.58
2018-05-27T04:52:23.448Z,102041.94
2018-05-27T04:54:51.987Z,102047.00
2018-05-27T04:57:20.372Z,102048.01
2018-05-27T04:59:48.697Z,102047.13
2018-05-27T05:02:17.069Z,102050.02
2018-05-27T05:04:45.420Z,102043.20
2018-05-27T05:07:14.572Z,102046.66
2018-05-27T05:09:42.975Z,102059.71
2018-05-27T05:12:11.360Z,102057.98
2018-05-27T05:14:39.741Z,102056.66
2018-05-27T05:17:08.195Z,102065.92
2018-05-27T05:19:36.541Z,102068.05
2018-05-27T05:22:04.965Z,102058.30
2018-05-27T05:24:33.364Z,102058.88
2018-05-27T05:27:02.564Z,102061.13
2018-05-27T05:29:31.760Z,102052.90
2018-05-27T05:32:00.189Z,102063.16
2018-05-27T05:34:28.583Z,102059.31
2018-05-27T05:36:56.977Z,102056.32
2018-05-27T05:39:25.882Z,102061.48
2018-05-27T05:41:54.485Z,102067.96
2018-05-27T05:44:23.639Z,102067.89
2018-05-27T05:46:52.072Z,102068.59
2018-05-27T05:49:21.343Z,102071.27
2018-05-27T05:51:49.758Z,102077.84
2018-05-27T05:54:18.131Z,102077.39
2018-05-27T05:56:47.411Z,102078.66
2018-05-27T05:59:15.758Z,102077.97
2018-05-27T06:01:44.251Z,102073.03
2018-05-27T06:04:12.652Z,102082.08
2018-05-27T06:06:41.034Z,102079.47
2018-05-27T06:09:09.474Z,102078.70
2018-05-27T06:11:37.914Z,102086.27
2018-05-27T06:14:07.101Z,102097.52
2018-05-27T06:16:36.369Z,102098.20
2018-05-27T06:19:04.784Z,102093.82
2018-05-27T06:21:33.139Z,102094.34
2018-05-27T06:24:02.009Z,102090.39
2018-05-27T06:26:30.467Z,102090.38
2018-05-27T06:28:58.902Z,102088.81
2018-05-27T06:31:27.382Z,102086.27
2018-05-27T06:33:55.839Z,102083.98
2018-05-27T06:36:24.220Z,102085.81
2018-05-27T06:38:52.599Z,102083.98
2018-05-27T06:41:21.028Z,102086.60
2018-05-27T06:43:49.408Z,102082.14
2018-05-27T06:46:18.713Z,102081.48
2018-05-27T06:48:47.115Z,102082.73
2018-05-27T06:51:15.526Z,102092.61
2018-05-27T06:53:44.640Z,102092.42
2018-05-27T06:56:13.006Z,102078.22
2018-05-27T06:58:41.359Z,102082.91
2018-05-27T07:01:09.737Z,102084.00
2018-05-27T07:03:38.068Z,102085.83
2018-05-27T07:06:06.382Z,102088.77
2018-05-27T07:08:35.135Z,102080.72
2018-05-27T07:11:03.525Z,102081.08
2018-05-27T07:13:32.615Z,102072.11
2018-05-27T07:16:01.754Z,102072.61
2018-05-27T07:18:30.116Z,102075.21
2018-05-27T07:20:58.463Z,102080.54
2018-05-27T07:23:27.586Z,102087.41
2018-05-27T07:25:55.936Z,102086.45
2018-05-27T07:28:24.309Z,102089.03
2018-05-27T07:30:53.127Z,102088.41
2018-05-27T07:33:21.491Z,102093.09
2018-05-27T07:35:49.873Z,102088.91
2018-05-27T07:38:18.243Z,102088.73
2018-05-27T07:40:46.628Z,102084.75
2018-05-27T07:43:15.053Z,102079.98
2018-05-27T07:45:43.411Z,102092.34
2018-05-27T07:48:11.778Z,102091.47
2018-05-27T07:50:40.911Z,102094.56
2018-05-27T07:53:09.447Z,102085.67
2018-05-27T07:55:37.802Z,102089.89
2018-05-27T07:58:06.147Z,102083.11
2018-05-27T08:00:34.497Z,102081.13
2018-05-27T08:03:02.838Z,102083.27
2018-05-27T08:05:31.186Z,102084.14
2018-05-27T08:07:59.571Z,102085.73
2018-05-27T08:10:27.901Z,102085.48
2018-05-27T08:12:56.989Z,102082.98
2018-05-27T08:15:26.569Z,102087.97
2018-05-27T08:17:54.944Z,102083.60
2018-05-27T08:20:23.252Z,102089.91
2018-05-27T08:22:51.623Z,102087.36
2018-05-27T08:25:19.980Z,102091.20
2018-05-27T08:27:48.312Z,102092.38
2018-05-27T08:30:16.669Z,102085.16
2018-05-27T08:32:45.022Z,102089.12
2018-05-27T08:35:13.439Z,102090.69
2018-05-27T08:37:42.112Z,102083.22
2018-05-27T08:40:10.452Z,102079.41
2018-05-27T08:42:38.769Z,102085.71
2018-05-27T08:45:07.164Z,102076.98
2018-05-27T08:47:35.504Z,102071.89
2018-05-27T08:50:03.835Z,102067.73
2018-05-27T08:52:32.249Z,102064.31
2018-05-27T08:55:00.553Z,102067.03
2018-05-27T08:57:28.963Z,102064.98
2018-05-27T08:59:58.324Z,102070.17
2018-05-27T09:02:26.786Z,102065.62
2018-05-27T09:04:55.213Z,102062.96
2018-05-27T09:07:24.399Z,102055.25
2018-05-27T09:09:52.778Z,102061.75
2018-05-27T09:12:21.129Z,102057.05
2018-05-27T09:14:50.268Z,102058.39
2018-05-27T09:17:19.384Z,102054.16
2018-05-27T09:19:47.811Z,102057.17
2018-05-27T09:22:16.656Z,102056.41
2018-05-27T09:24:44.984Z,102050.69
2018-05-27T09:27:13.470Z,102055.33
2018-05-27T09:29:41.884Z,102049.69
2018-05-27T09:32:10.338Z,102047.37
2018-05-27T09:34:38.709Z,102047.58
2018-05-27T09:37:07.165Z,102040.84
2018-05-27T09:39:36.302Z,102044.09
2018-05-27T09:42:04.663Z,102040.63
2018-05-27T09:44:33.365Z,102031.03
2018-05-27T09:47:01.814Z,102028.93
2018-05-27T09:49:30.239Z,102021.69
2018-05-27T09:51:59.486Z,102027.40
2018-05-27T09:54:27.873Z,102023.37
2018-05-27T09:56:56.377Z,102015.83
2018-05-27T09:59:24.807Z,102020.11
2018-05-27T10:01:53.143Z,102012.80
2018-05-27T10:04:21.504Z,102017.89
2018-05-27T10:06:50.099Z,102015.78
2018-05-27T10:09:18.652Z,102014.78
2018-05-27T10:11:47.182Z,102006.94
2018-05-27T10:14:15.581Z,102007.34
2018-05-27T10:16:44.057Z,102009.58
2018-05-27T10:19:13.354Z,102013.56
2018-05-27T10:21:42.003Z,102013.64
2018-05-27T10:24:10.504Z,102009.36
2018-05-27T10:26:38.884Z,102009.73
2018-05-27T10:29:07.371Z,102007.43
2018-05-27T10:31:35.815Z,102000.77
2018-05-27T10:34:04.253Z,102002.72
2018-05-27T10:36:32.621Z,101997.75
2018-05-27T10:39:01.828Z,101997.70
2018-05-27T10:41:30.918Z,101994.55
2018-05-27T10:43:59.319Z,101988.48
2018-05-27T10:46:27.778Z,101988.00
2018-05-27T10:48:56.912Z,101980.48
2018-05-27T10:51:25.688Z,101981.60
2018-05-27T10:53:54.099Z,101976.14
2018-05-27T10:56:22.422Z,101973.72
2018-05-27T10:58:51.540Z,101972.77
2018-05-27T11:01:19.886Z,101965.27
2018-05-27T11:03:48.197Z,101964.94
2018-05-27T11:06:16.572Z,101960.65
2018-05-27T11:08:44.903Z,101961.53
2018-05-27T11:11:13.261Z,101961.08
2018-05-27T11:13:42.109Z,101946.20
2018-05-27T11:16:11.201Z,101954.02
2018-05-27T11:18:40.408Z,101949.48
2018-05-27T11:21:08.822Z,101941.97
2018-05-27T11:23:37.213Z,101940.34
2018-05-27T11:26:05.536Z,101932.16
2018-05-27T11:28:34.714Z,101931.13
2018-05-27T11:31:03.127Z,101923.08
2018-05-27T11:33:32.220Z,101933.20
2018-05-27T11:36:01.647Z,101921.22
2018-05-27T11:38:29.966Z,101921.41
2018-05-27T11:40:58.316Z,101916.72
2018-05-27T11:43:26.679Z,101913.45
2018-05-27T11:45:55.015Z,101916.39
2018-05-27T11:48:23.359Z,101913.77
2018-05-27T11:50:51.707Z,101908.20
2018-05-27T11:53:20.111Z,101906.70
2018-05-27T11:55:48.465Z,101893.33
2018-05-27T11:58:17.095Z,101903.89
2018-05-27T12:00:45.432Z,101900.64
2018-05-27T12:03:13.795Z,101888.61
2018-05-27T12:05:42.921Z,101892.70
2018-05-27T12:08:11.231Z,101888.58
2018-05-27T12:10:39.582Z,101887.41
2018-05-27T12:13:07.938Z,101882.73
2018-05-27T12:15:36.276Z,101880.81
2018-05-27T12:18:04.649Z,101876.62
2018-05-27T12:20:33.478Z,101873.01
2018-05-27T12:23:01.875Z,101858.24
2018-05-27T12:25:30.192Z,101856.66
2018-05-27T12:27:58.564Z,101856.52
2018-05-27T12:30:26.934Z,101844.59
2018-05-27T12:32:55.267Z,101835.42
2018-05-27T12:35:23.650Z,101838.22
2018-05-27T12:37:52.779Z,101827.97
2018-05-27T12:40:21.096Z,101825.63
2018-05-27T12:42:49.550Z,101833.11
2018-05-27T12:45:17.918Z,101821.72
2018-05-27T12:47:46.334Z,101824.03
2018-05-27T12:50:14.754Z,101820.45
2018-05-27T12:52:43.084Z,101825.03
2018-05-27T12:55:11.432Z,101808.11
2018-05-27T12:57:39.787Z,101813.03
2018-05-27T13:00:08.129Z,101815.56
2018-05-27T13:02:36.454Z,101820.72
2018-05-27T13:05:05.349Z,101807.84
2018-05-27T13:07:33.702Z,101814.84
2018-05-27T13:10:02.824Z,101813.88
2018-05-27T13:12:31.899Z,101806.55
2018-05-27T13:15:01.024Z,101803.35
2018-05-27T13:17:29.392Z,101802.48
2018-05-27T13:19:57.737Z,101800.38
2018-05-27T13:22:26.815Z,101796.33
2018-05-27T13:24:55.153Z,101796.73
2018-05-27T13:27:23.898Z,101799.01
2018-05-27T13:29:52.249Z,101785.44
2018-05-27T13:32:20.620Z,101796.23
2018-05-27T13:34:48.979Z,101794.72
2018-05-27T13:37:17.365Z,101784.73
2018-05-27T13:39:45.706Z,101777.12
2018-05-27T13:42:14.063Z,101780.44
2018-05-27T13:44:42.382Z,101772.45
2018-05-27T13:47:10.764Z,101769.59
2018-05-27T13:49:39.442Z,101757.12
2018-05-27T13:52:07.788Z,101757.55
2018-05-27T13:54:36.129Z,101745.09
2018-05-27T13:57:04.490Z,101749.35
2018-05-27T13:59:32.788Z,101747.53
2018-05-27T14:02:01.149Z,101747.67
2018-05-27T14:04:29.476Z,101745.87
2018-05-27T14:06:57.821Z,101738.45
2018-05-27T14:09:26.167Z,101739.47
2018-05-27T14:11:54.686Z,101742.70
2018-05-27T14:14:23.047Z,101742.72
2018-05-27T14:16:51.376Z,101750.12
2018-05-27T14:19:19.725Z,101746.20
2018-05-27T14:21:48.088Z,101741.99
2018-05-27T14:24:16.452Z,101743.25
2018-05-27T14:26:45.553Z,101746.12
2018-05-27T14:29:13.966Z,101739.81
2018-05-27T14:31:42.368Z,101736.05
2018-05-27T14:34:11.106Z,101736.95
2018-05-27T14:36:39.443Z,101736.54
2018-05-27T14:39:08.533Z,101731.06
2018-05-27T14:41:36.933Z,101731.20
2018-05-27T14:44:05.248Z,101727.22
2018-05-27T14:46:33.639Z,101732.48
2018-05-27T14:49:02.070Z,101731.22
2018-05-27T14:51:30.397Z,101727.58
2018-05-27T14:53:58.734Z,101725.77
2018-05-27T14:56:27.151Z,101729.39
2018-05-27T14:58:55.490Z,101725.06
2018-05-27T15:01:24.576Z,101724.69
2018-05-27T15:03:52.951Z,101720.75
2018-05-27T15:06:22.075Z,101728.33
2018-05-27T15:08:50.452Z,101724.73
2018-05-27T15:11:18.794Z,101727.16
2018-05-27T15:13:47.108Z,101724.63
2018-05-27T15:16:15.457Z,101724.70
2018-05-27T15:18:44.650Z,101727.05
2018-05-27T15:21:13.007Z,101727.78
2018-05-27T15:23:41.424Z,101728.00
2018-05-27T15:26:10.534Z,101722.89
2018-05-27T15:28:39.666Z,101713.60
2018-05-27T15:31:08.018Z,101708.77
2018-05-27T15:33:37.185Z,101706.28
2018-05-27T15:36:06.303Z,101699.77
2018-05-27T15:38:35.429Z,101704.65
2018-05-27T15:41:03.907Z,101701.84
2018-05-27T15:43:32.253Z,101703.95
2018-05-27T15:46:00.601Z,101708.84
2018-05-27T15:48:28.947Z,101714.38
2018-05-27T15:50:57.272Z,101709.29
2018-05-27T15:53:25.591Z,101707.20
2018-05-27T15:55:53.927Z,101703.58
2018-05-27T15:58:22.261Z,101707.30
2018-05-27T16:00:51.364Z,101704.33
2018-05-27T16:03:19.899Z,101698.52
2018-05-27T16:05:48.237Z,101695.40
2018-05-27T16:08:16.646Z,101695.08
2018-05-27T16:10:45.055Z,101697.77
2018-05-27T16:13:13.418Z,101691.56
2018-05-27T16:15:42.510Z,101694.05
2018-05-27T16:18:10.926Z,101694.63
2018-05-27T16:20:39.256Z,101700.91
2018-05-27T16:23:07.595Z,101695.70
2018-05-27T16:25:36.247Z,101695.83
2018-05-27T16:28:05.400Z,101697.13
2018-05-27T16:30:33.724Z,101690.30
2018-05-27T16:33:02.895Z,101691.96
2018-05-27T16:35:31.280Z,101692.33
2018-05-27T16:38:00.417Z,101689.13
2018-05-27T16:40:28.786Z,101686.48
2018-05-27T16:42:57.126Z,101688.10
2018-05-27T16:45:26.252Z,101688.13
2018-05-27T16:47:54.683Z,101696.19
2018-05-27T16:50:23.041Z,101698.88
2018-05-27T16:52:51.407Z,101694.27
2018-05-27T16:55:19.790Z,101698.82
2018-05-27T16:57:48.130Z,101690.95
2018-05-27T17:00:16.583Z,101697.35
2018-05-27T17:02:44.984Z,101687.81
2018-05-27T17:05:14.126Z,101695.40
2018-05-27T17:07:42.470Z,101689.69
2018-05-27T17:10:11.355Z,101687.98
2018-05-27T17:12:39.777Z,101683.63
2018-05-27T17:15:08.136Z,101685.65
2018-05-27T17:17:36.525Z,101676.64
2018-05-27T17:20:04.872Z,101673.84
2018-05-27T17:22:33.341Z,101677.19
2018-05-27T17:25:01.893Z,101671.91
2018-05-27T17:27:30.290Z,101666.05
2018-05-27T17:29:58.641Z,101670.59
2018-05-27T17:32:27.119Z,101666.88
2018-05-27T17:34:55.443Z,101667.59
2018-05-27T17:37:23.888Z,101665.50
2018-05-27T17:39:52.343Z,101671.57
2018-05-27T17:42:20.660Z,101677.00
2018-05-27T17:44:49.044Z,101677.05
2018-05-27T17:47:17.428Z,101674.69
2018-05-27T17:49:45.791Z,101679.53
2018-05-27T17:52:14.100Z,101681.77
2018-05-27T17:54:42.859Z,101678.99
2018-05-27T17:57:11.181Z,101678.74
2018-05-27T17:59:40.303Z,101683.45
2018-05-27T18:02:08.697Z,101686.78
2018-05-27T18:04:37.617Z,101687.30
2018-05-27T18:07:06.130Z,101689.94
2018-05-27T18:09:34.541Z,101696.28
2018-05-27T18:12:02.864Z,101698.33
2018-05-27T18:14:32.064Z,101709.45
2018-05-27T18:17:01.014Z,101710.63
2018-05-27T18:19:29.364Z,101709.03
2018-05-27T18:21:58.561Z,101707.06
2018-05-27T18:24:27.114Z,101703.14
2018-05-27T18:26:55.457Z,101706.59
2018-05-27T18:29:23.823Z,101713.92
2018-05-27T18:31:52.294Z,101715.01
2018-05-27T18:34:20.723Z,101715.96
2018-05-27T18:36:49.073Z,101718.55
2018-05-27T18:39:17.511Z,101712.41
2018-05-27T18:41:46.652Z,101717.05
2018-05-27T18:44:15.049Z,101722.13
2018-05-27T18:46:43.561Z,101712.48
2018-05-27T18:49:11.984Z,101710.47
2018-05-27T18:51:40.420Z,101711.89
2018-05-27T18:54:08.780Z,101711.72
2018-05-27T18:56:37.088Z,101715.66
2018-05-27T18:59:05.525Z,101719.16
2018-05-27T19:01:34.740Z,101708.35
2018-05-27T19:04:03.052Z,101713.00
2018-05-27T19:06:32.178Z,101711.80
2018-05-27T19:09:00.714Z,101714.87
2018-05-27T19:11:29.067Z,101710.09
2018-05-27T19:13:57.476Z,101713.44
2018-05-27T19:16:25.922Z,101717.79
2018-05-27T19:18:54.244Z,101715.59
2018-05-27T19:21:22.641Z,101716.62
2018-05-27T19:23:51.870Z,101721.14
2018-05-27T19:26:20.216Z,101719.19
2018-05-27T19:28:49.332Z,101723.23
2018-05-27T19:31:17.692Z,101710.16
2018-05-27T19:33:46.037Z,101708.80
2018-05-27T19:36:15.144Z,101711.91
2018-05-27T19:38:43.511Z,101720.09
2018-05-27T19:41:11.904Z,101720.88
2018-05-27T19:43:40.384Z,101726.38
2018-05-27T19:46:08.847Z,101720.30
2018-05-27T19:48:37.216Z,101724.95
2018-05-27T19:51:05.588Z,101727.64
2018-05-27T19:53:33.981Z,101724.91
2018-05-27T19:56:02.356Z,101725.31
2018-05-27T19:58:30.730Z,101724.46
2018-05-27T20:00:59.139Z,101737.05
2018-05-27T20:03:27.496Z,101745.81
2018-05-27T20:08:55.607Z,101749.94
2018-05-27T20:11:24.245Z,101749.36
2018-05-27T20:13:52.621Z,101757.47
2018-05-27T20:16:20.958Z,101755.05
2018-05-27T20:18:50.295Z,101746.86
2018-05-27T20:21:18.634Z,101753.20
2018-05-27T20:23:47.011Z,101755.58
2018-05-27T20:26:15.836Z,101763.32
2018-05-27T20:28:44.185Z,101767.62
2018-05-27T20:31:12.726Z,101766.27
2018-05-27T20:33:41.162Z,101756.13
2018-05-27T20:36:09.513Z,101753.74
2018-05-27T20:38:37.837Z,101759.36
2018-05-27T20:41:06.999Z,101764.63
2018-05-27T20:43:35.339Z,101756.67
2018-05-27T20:46:03.722Z,101753.70
2018-05-27T20:48:32.579Z,101757.39
2018-05-27T20:51:00.923Z,101764.42
2018-05-27T20:53:29.307Z,101770.09
2018-05-27T20:55:57.720Z,101772.87
2018-05-27T20:58:26.057Z,101771.14
2018-05-27T21:00:54.412Z,101773.54
2018-05-27T21:03:22.777Z,101782.98
2018-05-27T21:05:51.136Z,101780.75
2018-05-27T21:08:19.471Z,101788.52
2018-05-27T21:10:47.941Z,101787.41
2018-05-27T21:13:16.381Z,101787.58
2018-05-27T21:15:44.805Z,101793.44
2018-05-27T21:18:13.159Z,101789.41
2018-05-27T21:20:41.539Z,101783.89
2018-05-27T21:23:09.878Z,101785.66
2018-05-27T21:25:38.244Z,101790.37
2018-05-27T21:28:07.376Z,101794.17
2018-05-27T21:30:35.759Z,101795.96
2018-05-27T21:33:04.320Z,101793.11
2018-05-27T21:35:33.429Z,101794.33
2018-05-27T21:38:01.767Z,101802.10
2018-05-27T21:40:30.118Z,101805.44
2018-05-27T21:42:58.516Z,101795.00
2018-05-27T21:45:27.001Z,101783.51
2018-05-27T21:47:55.416Z,101791.80
2018-05-27T21:50:24.509Z,101793.35
2018-05-27T21:52:53.594Z,101785.86
2018-05-27T21:55:23.015Z,101783.46
2018-05-27T21:57:51.382Z,101778.56
2018-05-27T22:00:19.781Z,101776.30
2018-05-27T22:02:48.139Z,101768.45
2018-05-27T22:05:17.255Z,101762.98
2018-05-27T22:07:45.576Z,101763.70
2018-05-27T22:10:13.975Z,101765.53
2018-05-27T22:12:42.308Z,101773.36
2018-05-27T22:15:10.664Z,101773.45
2018-05-27T22:17:40.159Z,101784.12
2018-05-27T22:20:09.369Z,101783.00
2018-05-27T22:22:37.757Z,101778.84
2018-05-27T22:25:06.292Z,101784.72
2018-05-27T22:27:34.650Z,101777.27
2018-05-27T22:30:03.245Z,101777.91
2018-05-27T22:32:31.710Z,101779.25
2018-05-27T22:35:00.303Z,101788.50
2018-05-27T22:37:28.716Z,101793.63
2018-05-27T22:40:04.735Z,101799.34
2018-05-27T22:42:33.089Z,101803.80
2018-05-27T22:45:01.804Z,101807.13
2018-05-27T22:47:30.302Z,101807.17
2018-05-27T22:49:58.843Z,101815.61
2018-05-27T22:52:27.297Z,101809.22
2018-05-27T22:54:56.489Z,101808.70
2018-05-27T22:57:25.696Z,101812.62
2018-05-27T22:59:54.072Z,101808.52
2018-05-27T23:02:23.277Z,101808.75
2018-05-27T23:04:51.940Z,101804.92
2018-05-27T23:07:20.434Z,101802.06
2018-05-27T23:09:48.864Z,101804.70
2018-05-27T23:12:17.296Z,101800.67
2018-05-27T23:14:46.471Z,101799.01
2018-05-27T23:17:14.841Z,101785.38
2018-05-27T23:19:43.344Z,101790.38
2018-05-27T23:22:11.838Z,101785.58
2018-05-27T23:24:41.159Z,101777.62
2018-05-27T23:27:10.313Z,101776.70
2018-05-27T23:29:38.718Z,101770.07
2018-05-27T23:32:07.873Z,101776.53
2018-05-27T23:34:36.198Z,101770.75
2018-05-27T23:37:05.327Z,101783.37
2018-05-27T23:39:33.773Z,101784.70
2018-05-27T23:42:02.171Z,101780.41
2018-05-27T23:44:30.572Z,101772.58
2018-05-27T23:46:59.227Z,101775.86
2018-05-27T23:49:27.563Z,101773.63
2018-05-27T23:51:55.921Z,101775.55
2018-05-27T23:54:24.286Z,101780.77
2018-05-27T23:56:52.616Z,101781.72
2018-05-27T23:59:20.993Z,101773.54
